Time;durP1;ratioP1;P1;durP2;ratioP2;P2;SDS_P1;SDS_P2;PMS_P1;PMS_P2;Temp;Humidity;BMP_temperature;BMP_pressure;BME280_temperature;BME280_humidity;BME280_pressure;Samples;Min_cycle;Max_cycle;Signal;HPM_P1;HPM_P2
2021/06/10 00:01:48;;;;;;;12.85;11.65;;;;;;;21.71;34.97;101504.53;4997969;28;97594;-73
2021/06/10 00:04:16;;;;;;;13.02;11.73;;;;;;;21.70;35.06;101505.47;5003033;28;96988;-74
2021/06/10 00:06:43;;;;;;;13.13;11.90;;;;;;;21.69;34.97;101501.84;5021600;27;97326;-75
2021/06/10 00:09:10;;;;;;;12.55;11.35;;;;;;;21.67;35.34;101506.34;5021263;27;97887;-74
2021/06/10 00:11:38;;;;;;;12.57;11.48;;;;;;;21.64;35.34;101500.06;5018370;27;98482;-74
2021/06/10 00:14:05;;;;;;;12.23;11.10;;;;;;;21.63;35.23;101492.88;5004462;28;97664;-75
2021/06/10 00:16:33;;;;;;;12.85;11.65;;;;;;;21.64;35.09;101492.84;5002375;28;98063;-74
2021/06/10 00:19:02;;;;;;;13.50;12.20;;;;;;;21.67;35.25;101486.50;5003395;28;98536;-74
2021/06/10 00:21:29;;;;;;;13.97;12.67;;;;;;;21.70;35.02;101500.03;5020723;27;97349;-73
2021/06/10 00:23:56;;;;;;;15.02;13.63;;;;;;;21.65;34.83;101491.91;5022262;27;97694;-74
2021/06/10 00:26:24;;;;;;;14.50;13.10;;;;;;;21.62;34.89;101486.56;5002690;28;98012;-74
2021/06/10 00:28:51;;;;;;;15.13;13.63;;;;;;;21.60;34.67;101499.22;5003567;28;97897;-73
2021/06/10 00:31:18;;;;;;;15.18;13.73;;;;;;;21.57;34.68;101480.31;5019830;27;99175;-73
2021/06/10 00:33:46;;;;;;;14.35;13.00;;;;;;;21.53;34.87;101491.19;5016971;27;97097;-73
2021/06/10 00:36:14;;;;;;;14.65;13.15;;;;;;;21.46;34.75;101503.94;5014442;27;97443;-73
2021/06/10 00:38:43;;;;;;;14.60;13.20;;;;;;;21.46;34.74;101505.72;5019194;27;100569;-74
2021/06/10 00:41:10;;;;;;;15.13;13.73;;;;;;;21.43;34.99;101501.28;5017508;27;98599;-73
2021/06/10 00:43:38;;;;;;;15.85;14.30;;;;;;;21.44;35.11;101512.97;5019566;27;97761;-73
2021/06/10 00:46:05;;;;;;;16.20;14.70;;;;;;;21.41;34.94;101507.59;5022507;27;97438;-73
2021/06/10 00:48:34;;;;;;;17.02;15.32;;;;;;;21.39;35.18;101507.63;5018861;27;100596;-74
2021/06/10 00:51:03;;;;;;;16.57;14.97;;;;;;;21.35;35.02;101518.50;5016948;27;99077;-74
2021/06/10 00:53:32;;;;;;;17.60;15.85;;;;;;;21.31;34.93;101512.22;5020505;27;98111;-74
2021/06/10 00:56:04;;;;;;;17.50;15.60;;;;;;;21.29;35.22;101524.00;5004114;28;97788;-73
2021/06/10 00:58:31;;;;;;;17.40;15.70;;;;;;;21.28;35.16;101517.69;5020216;27;97700;-75
2021/06/10 01:01:00;;;;;;;15.50;13.88;;;;;;;21.27;35.17;101515.88;5020838;27;96876;-73
2021/06/10 01:03:28;;;;;;;15.88;14.38;;;;;;;21.28;35.27;101516.78;4996531;28;97544;-72
2021/06/10 01:05:57;;;;;;;16.73;14.97;;;;;;;21.25;35.21;101503.28;5019809;27;97906;-73
2021/06/10 01:08:34;;;;;;;15.85;14.27;;;;;;;21.20;34.74;101513.25;5004017;28;99075;-74
2021/06/10 01:11:12;;;;;;;15.52;14.02;;;;;;;21.12;34.85;101505.25;5002241;28;98943;-72
2021/06/10 01:13:46;;;;;;;16.30;14.60;;;;;;;21.00;35.27;101510.72;5021379;27;97505;-73
2021/06/10 01:16:16;;;;;;;16.33;14.82;;;;;;;20.97;35.61;101497.25;5017958;27;97618;-74
2021/06/10 01:18:44;;;;;;;16.30;14.73;;;;;;;20.98;35.60;101501.72;5018815;27;99914;-73
2021/06/10 01:21:11;;;;;;;15.60;14.05;;;;;;;21.00;35.78;101502.63;5019701;27;100906;-73
2021/06/10 01:24:01;;;;;;;15.13;13.63;;;;;;;20.99;35.37;101506.25;5020117;27;96979;-73
2021/06/10 01:26:31;;;;;;;15.15;13.65;;;;;;;21.01;35.55;101506.22;5019842;27;98069;-73
2021/06/10 01:29:01;;;;;;;15.32;13.75;;;;;;;21.02;35.42;101508.00;5019987;27;98093;-73
2021/06/10 01:31:29;;;;;;;14.77;13.43;;;;;;;21.02;35.30;101502.59;5020083;27;100616;-73
2021/06/10 01:33:58;;;;;;;14.85;13.45;;;;;;;21.02;35.30;101502.59;5020615;27;98009;-73
2021/06/10 01:36:27;;;;;;;15.35;13.85;;;;;;;20.98;35.23;101496.31;5019828;27;98049;-73
2021/06/10 01:39:00;;;;;;;14.50;13.17;;;;;;;20.98;35.57;101493.63;5000434;28;99663;-73
2021/06/10 01:41:30;;;;;;;14.17;12.77;;;;;;;20.92;35.08;101491.88;5018199;27;97341;-74
2021/06/10 01:44:02;;;;;;;14.90;13.40;;;;;;;20.88;35.57;101498.25;5016923;27;97177;-73
2021/06/10 01:46:30;;;;;;;14.38;12.88;;;;;;;20.77;35.26;101491.13;4997914;27;97749;-73
2021/06/10 01:48:59;;;;;;;14.80;13.32;;;;;;;20.70;35.16;101495.69;4994920;27;100500;-74
2021/06/10 01:51:29;;;;;;;15.27;13.82;;;;;;;20.59;35.47;101496.72;5018855;27;97818;-73
2021/06/10 01:53:59;;;;;;;14.90;13.52;;;;;;;20.50;35.78;101491.34;5015530;27;98128;-74
2021/06/10 01:56:27;;;;;;;15.15;13.80;;;;;;;20.43;35.43;101487.78;5001743;27;97001;-74
2021/06/10 01:58:55;;;;;;;15.75;14.25;;;;;;;20.43;35.55;101481.50;5016321;27;98793;-73
2021/06/10 02:01:25;;;;;;;15.20;13.75;;;;;;;20.43;35.44;101484.22;5017802;27;97567;-73
2021/06/10 02:03:53;;;;;;;15.13;13.57;;;;;;;20.45;35.62;101469.75;5019376;27;98048;-71
2021/06/10 02:06:21;;;;;;;15.10;13.63;;;;;;;20.52;35.97;101476.94;4999876;27;97877;-70
2021/06/10 02:08:50;;;;;;;14.63;13.13;;;;;;;20.59;35.57;101480.50;5019334;27;98141;-71
2021/06/10 02:11:19;;;;;;;14.25;10.73;;;;;;;20.59;35.62;101484.09;5020443;27;97984;-71
2021/06/10 02:13:48;;;;;;;11.98;10.88;;;;;;;20.61;35.25;101484.09;4993138;27;96989;-71
2021/06/10 02:16:16;;;;;;;12.23;10.95;;;;;;;20.60;35.14;101493.09;5023132;27;96881;-72
2021/06/10 02:18:46;;;;;;;15.30;13.45;;;;;;;20.64;35.62;101479.53;5003167;27;98568;-71
2021/06/10 02:21:14;;;;;;;14.93;13.13;;;;;;;20.66;35.41;101482.22;5019526;27;98684;-71
2021/06/10 02:23:43;;;;;;;12.77;11.48;;;;;;;20.69;35.12;101482.19;5021770;27;98220;-71
2021/06/10 02:26:11;;;;;;;13.63;11.50;;;;;;;20.65;35.28;101481.31;5021223;27;97679;-71
2021/06/10 02:28:38;;;;;;;12.35;11.15;;;;;;;20.59;35.19;101469.69;4990698;27;99739;-71
2021/06/10 02:31:08;;;;;;;13.63;12.05;;;;;;;20.54;35.20;101479.66;5020179;27;96821;-71
2021/06/10 02:33:38;;;;;;;13.25;11.60;;;;;;;20.51;35.36;101477.81;5018990;27;98148;-70
2021/06/10 02:36:08;;;;;;;16.02;14.43;;;;;;;20.52;35.71;101471.53;5009248;27;97420;-71
2021/06/10 02:38:37;;;;;;;13.25;11.93;;;;;;;20.49;35.46;101467.91;5016607;27;99676;-70
2021/06/10 02:41:08;;;;;;;14.00;12.60;;;;;;;20.43;35.33;101468.00;5017959;27;98398;-71
2021/06/10 02:43:36;;;;;;;11.98;10.88;;;;;;;20.42;35.07;101464.38;5017260;27;98361;-71
2021/06/10 02:46:03;;;;;;;16.50;14.80;;;;;;;20.40;35.62;101462.59;5018843;27;97887;-71
2021/06/10 02:48:31;;;;;;;13.85;12.50;;;;;;;20.42;35.55;101460.78;5020572;27;96826;-73
2021/06/10 02:50:59;;;;;;;12.18;10.75;;;;;;;20.40;35.36;101463.50;5019631;27;100409;-73
2021/06/10 02:53:29;;;;;;;13.35;11.93;;;;;;;20.38;35.22;101465.31;5002363;28;96879;-74
2021/06/10 02:55:59;;;;;;;13.90;12.07;;;;;;;20.37;35.33;101463.53;5018276;27;98115;-75
2021/06/10 02:58:27;;;;;;;13.82;12.38;;;;;;;20.36;35.10;101460.81;5019435;27;97630;-72
2021/06/10 03:00:56;;;;;;;13.18;11.77;;;;;;;20.34;35.15;101462.66;5017403;27;98662;-71
2021/06/10 03:03:24;;;;;;;13.82;12.45;;;;;;;20.32;35.54;101461.78;5003374;28;96727;-71
2021/06/10 03:05:52;;;;;;;12.10;10.90;;;;;;;20.28;35.12;101457.28;5001722;28;98550;-70
2021/06/10 03:08:20;;;;;;;11.93;10.73;;;;;;;20.25;35.24;101463.59;5017301;27;99280;-71
2021/06/10 03:11:39;;;;;;;14.70;11.20;;;;;;;20.20;35.11;101464.56;5036747;27;98178;-71
2021/06/10 03:15:21;;;;;;;14.07;11.38;;;;;;;20.16;35.03;101463.69;5021663;27;97353;-71
2021/06/10 03:19:04;;;;;;;11.18;10.10;;;;;;;20.13;35.41;101460.09;5020363;27;98032;-71
2021/06/10 03:22:47;;;;;;;15.93;14.25;;;;;;;20.11;36.20;101470.03;5020139;27;97833;-71
2021/06/10 03:26:28;;;;;;;12.45;11.15;;;;;;;20.08;35.97;101470.06;5021692;27;98133;-71
2021/06/10 03:30:13;;;;;;;14.40;11.40;;;;;;;20.02;35.97;101470.09;5022578;27;97754;-71
2021/06/10 03:33:54;;;;;;;22.52;18.33;;;;;;;19.95;35.43;101462.06;5020613;27;97350;-70
2021/06/10 03:37:38;;;;;;;15.43;13.00;;;;;;;19.94;35.44;101462.94;5020633;27;97238;-71
2021/06/10 03:41:19;;;;;;;13.20;11.90;;;;;;;20.02;35.60;101462.91;5019599;27;97359;-71
2021/06/10 03:45:03;;;;;;;19.40;15.43;;;;;;;20.01;35.27;101460.22;5019324;27;96880;-70
2021/06/10 03:48:46;;;;;;;13.55;11.82;;;;;;;19.98;35.34;101467.44;5018026;27;96946;-71
2021/06/10 03:52:29;;;;;;;14.05;12.27;;;;;;;19.93;35.64;101461.16;5019873;27;97453;-71
2021/06/10 03:56:11;;;;;;;11.98;10.27;;;;;;;19.93;35.24;101466.56;5020136;27;97929;-71
2021/06/10 03:59:53;;;;;;;13.45;11.95;;;;;;;19.84;35.67;101468.38;5017149;27;97098;-72
2021/06/10 04:02:39;;;;;;;14.95;12.55;;;;;;;19.79;35.59;101465.69;5008457;27;97969;-72
2021/06/10 04:05:29;;;;;;;12.50;11.20;;;;;;;19.81;35.80;101474.69;5012138;27;97409;-71
2021/06/10 04:08:15;;;;;;;13.57;11.07;;;;;;;19.83;35.53;101472.88;5017136;27;97936;-71
2021/06/10 04:10:42;;;;;;;13.07;11.63;;;;;;;19.86;35.51;101470.16;4997701;28;98068;-73
2021/06/10 04:13:10;;;;;;;14.27;12.07;;;;;;;19.88;35.65;101472.88;5020368;27;96826;-71
2021/06/10 04:15:37;;;;;;;13.82;12.07;;;;;;;19.92;35.37;101475.56;4997028;28;100277;-71
2021/06/10 04:18:05;;;;;;;15.45;12.18;;;;;;;19.93;35.31;101477.38;5018749;27;98827;-69
2021/06/10 04:20:33;;;;;;;14.05;11.73;;;;;;;19.94;35.57;101472.84;5017805;27;97636;-70
2021/06/10 04:23:00;;;;;;;14.27;11.43;;;;;;;19.95;35.33;101474.66;5015084;27;97387;-71
2021/06/10 04:25:28;;;;;;;13.93;12.43;;;;;;;19.89;35.17;101472.84;5002170;28;99214;-72
2021/06/10 04:27:55;;;;;;;12.80;11.40;;;;;;;19.86;35.77;101472.84;5014855;27;98613;-72
2021/06/10 04:30:23;;;;;;;13.60;11.65;;;;;;;19.84;35.49;101477.41;5015036;27;98483;-71
2021/06/10 04:32:50;;;;;;;14.85;12.73;;;;;;;19.86;35.59;101474.69;4997295;28;97642;-69
2021/06/10 04:35:18;;;;;;;13.43;11.55;;;;;;;19.84;35.64;101474.69;4990299;28;99110;-71
2021/06/10 04:37:47;;;;;;;62.95;39.45;;;;;;;19.86;35.72;101470.16;5006535;27;97668;-72
2021/06/10 04:40:16;;;;;;;19.52;15.45;;;;;;;19.87;35.72;101471.97;4996448;28;97851;-71
2021/06/10 04:42:43;;;;;;;15.30;12.10;;;;;;;19.84;35.82;101469.28;5004050;27;98815;-71
2021/06/10 04:45:11;;;;;;;13.50;12.13;;;;;;;19.85;35.74;101472.88;5019104;27;100937;-72
2021/06/10 04:47:39;;;;;;;12.85;11.55;;;;;;;19.91;35.47;101475.53;5021440;27;99088;-72
2021/06/10 04:50:07;;;;;;;13.63;11.82;;;;;;;19.89;35.70;101483.66;5015539;27;98352;-72
2021/06/10 04:52:35;;;;;;;12.02;10.93;;;;;;;19.88;35.79;101484.56;5016731;27;97285;-72
2021/06/10 04:55:04;;;;;;;14.30;11.95;;;;;;;19.88;35.71;101479.16;5008801;27;99582;-72
2021/06/10 04:57:33;;;;;;;13.35;11.18;;;;;;;19.90;35.32;101479.16;5019272;27;101996;-72
2021/06/10 05:00:01;;;;;;;12.98;11.68;;;;;;;19.90;35.68;101488.16;5016389;27;98000;-70
2021/06/10 05:02:28;;;;;;;13.05;11.73;;;;;;;19.92;35.66;101472.88;4993871;28;97711;-70
2021/06/10 05:04:56;;;;;;;12.63;11.15;;;;;;;19.86;35.52;101475.56;5000658;27;99533;-70
2021/06/10 05:07:23;;;;;;;15.55;12.10;;;;;;;19.91;35.86;101475.53;5017918;27;99650;-71
2021/06/10 05:09:50;;;;;;;13.15;11.85;;;;;;;19.92;35.49;101482.72;5007559;27;97041;-71
2021/06/10 05:12:19;;;;;;;12.88;11.57;;;;;;;19.95;35.68;101482.75;5018497;27;97332;-70
2021/06/10 05:14:46;;;;;;;12.18;10.98;;;;;;;19.97;35.28;101481.81;5019319;27;97901;-70
2021/06/10 05:17:14;;;;;;;16.85;11.93;;;;;;;19.99;35.63;101479.16;5013861;27;97877;-71
2021/06/10 05:19:41;;;;;;;12.40;11.20;;;;;;;20.03;35.30;101477.31;5018457;27;97323;-71
2021/06/10 05:22:09;;;;;;;15.57;13.98;;;;;;;20.01;35.87;101480.00;5013905;27;97899;-70
2021/06/10 05:24:36;;;;;;;15.15;13.07;;;;;;;20.16;36.22;101479.00;5000532;28;98997;-72
2021/06/10 05:27:07;;;;;;;14.68;13.18;;;;;;;20.12;36.34;101477.25;5019630;27;99286;-70
2021/06/10 05:29:36;;;;;;;14.43;12.37;;;;;;;20.19;36.16;101479.00;5018317;27;98027;-70
2021/06/10 05:32:03;;;;;;;15.50;12.88;;;;;;;20.28;35.92;101477.13;5021356;27;98479;-70
2021/06/10 05:34:32;;;;;;;15.00;13.55;;;;;;;20.37;36.08;101476.16;5021052;27;99215;-71
2021/06/10 05:36:59;;;;;;;14.20;12.80;;;;;;;20.42;35.58;101472.50;5002142;28;98011;-70
2021/06/10 05:39:26;;;;;;;15.73;12.87;;;;;;;20.45;35.71;101477.00;5015734;27;97120;-70
2021/06/10 05:41:55;;;;;;;14.60;13.25;;;;;;;20.51;36.01;101480.53;5021555;27;97391;-70
2021/06/10 05:44:22;;;;;;;13.93;12.57;;;;;;;20.62;35.81;101488.56;5020689;27;98892;-71
2021/06/10 05:46:51;;;;;;;13.63;12.32;;;;;;;20.70;35.29;101484.88;5020051;27;97473;-71
2021/06/10 05:49:18;;;;;;;15.40;12.65;;;;;;;20.77;35.29;101483.94;5000753;28;97522;-72
2021/06/10 05:51:46;;;;;;;14.23;12.82;;;;;;;20.84;34.99;101490.16;5021551;27;98015;-71
2021/06/10 05:54:14;;;;;;;13.15;11.75;;;;;;;20.93;35.16;101492.78;5018225;27;97917;-71
2021/06/10 05:56:41;;;;;;;12.68;11.38;;;;;;;21.01;35.10;101493.59;5020858;27;97785;-71
2021/06/10 05:59:08;;;;;;;12.40;11.13;;;;;;;21.10;35.03;101490.78;5019604;27;97529;-72
2021/06/10 06:01:36;;;;;;;13.80;12.40;;;;;;;21.20;34.36;101488.88;5002745;28;97217;-71
2021/06/10 06:04:05;;;;;;;13.83;12.23;;;;;;;21.20;34.41;101489.78;5018277;27;99723;-71
2021/06/10 06:06:32;;;;;;;14.68;12.45;;;;;;;21.25;34.34;101487.91;5001569;28;99648;-71
2021/06/10 06:09:00;;;;;;;15.23;12.33;;;;;;;21.29;34.28;101484.28;5020861;27;98129;-71
2021/06/10 06:11:27;;;;;;;12.60;11.40;;;;;;;21.32;34.31;101492.38;5018797;27;97757;-71
2021/06/10 06:14:05;;;;;;;91.85;66.97;;;;;;;21.38;34.29;101491.41;5018371;27;98421;-71
2021/06/10 06:16:35;;;;;;;15.18;13.57;;;;;;;21.48;34.42;101493.97;5018811;27;98030;-71
2021/06/10 06:19:05;;;;;;;13.83;11.00;;;;;;;21.57;34.14;101495.66;5008427;27;98123;-71
2021/06/10 06:21:34;;;;;;;11.65;10.45;;;;;;;21.60;33.92;101499.22;5022401;27;97401;-71
2021/06/10 06:24:03;;;;;;;10.45;9.45;;;;;;;21.65;33.81;101496.47;5020119;27;99075;-71
2021/06/10 06:26:30;;;;;;;12.17;10.30;;;;;;;21.71;33.87;101490.97;5020764;27;97397;-70
2021/06/10 06:29:00;;;;;;;11.82;10.55;;;;;;;21.80;33.73;101493.56;5019386;27;97593;-72
2021/06/10 06:31:27;;;;;;;10.63;9.68;;;;;;;21.86;33.58;101497.09;5002545;27;98624;-71
2021/06/10 06:33:55;;;;;;;10.43;9.32;;;;;;;21.93;33.66;101504.22;5019644;27;100575;-71
2021/06/10 06:36:23;;;;;;;9.23;8.32;;;;;;;22.03;33.36;101505.00;5019197;27;97853;-72
2021/06/10 06:38:51;;;;;;;10.18;9.18;;;;;;;22.11;32.85;101502.16;5017323;27;97863;-72
2021/06/10 06:41:18;;;;;;;58.67;42.90;;;;;;;22.17;32.94;101508.38;5001437;27;97856;-71
2021/06/10 06:43:46;;;;;;;12.63;11.43;;;;;;;22.23;32.89;101508.28;5022038;27;97967;-71
2021/06/10 06:46:16;;;;;;;11.13;10.13;;;;;;;22.27;32.85;101501.94;5012792;27;98114;-71
2021/06/10 06:48:44;;;;;;;13.05;11.75;;;;;;;22.24;32.81;101510.06;5001657;27;98700;-71
2021/06/10 06:51:11;;;;;;;12.33;11.10;;;;;;;22.29;32.73;101510.06;5026655;27;97048;-72
2021/06/10 06:53:40;;;;;;;13.00;11.63;;;;;;;22.30;32.93;101511.84;5014874;27;101209;-72
2021/06/10 06:56:19;;;;;;;14.88;12.70;;;;;;;22.28;32.74;101513.66;5027975;27;98004;-71
2021/06/10 06:58:47;;;;;;;14.73;13.32;;;;;;;22.29;32.91;101508.22;5003571;27;97202;-71
2021/06/10 07:01:14;;;;;;;13.93;12.27;;;;;;;22.31;33.09;101519.94;5020162;27;97421;-71
2021/06/10 07:03:42;;;;;;;12.53;11.03;;;;;;;22.33;33.06;101509.09;5011803;27;97200;-71
2021/06/10 07:06:09;;;;;;;13.37;12.07;;;;;;;22.39;33.03;101515.31;5002561;27;99308;-71
2021/06/10 07:08:36;;;;;;;13.95;11.23;;;;;;;22.43;33.05;101513.44;5018602;27;97761;-71
2021/06/10 07:11:05;;;;;;;93.18;73.35;;;;;;;22.52;32.84;101521.41;5012376;27;97687;-71
2021/06/10 07:13:32;;;;;;;13.50;12.10;;;;;;;22.64;32.91;101521.19;5018169;27;97851;-71
2021/06/10 07:16:01;;;;;;;11.70;9.48;;;;;;;22.73;32.34;101521.03;5017412;27;99851;-71
2021/06/10 07:18:30;;;;;;;9.93;8.93;;;;;;;22.74;32.19;101522.84;5002189;27;97620;-71
2021/06/10 07:20:57;;;;;;;9.10;8.20;;;;;;;22.80;32.03;101522.75;5020628;27;97137;-71
2021/06/10 07:23:24;;;;;;;10.48;8.63;;;;;;;22.84;31.63;101522.69;5001122;27;99470;-71
2021/06/10 07:25:52;;;;;;;9.38;8.43;;;;;;;22.89;31.63;101528.03;5018554;27;99581;-71
2021/06/10 07:28:20;;;;;;;8.25;7.45;;;;;;;22.91;31.58;101525.31;5019062;27;97393;-71
2021/06/10 07:30:49;;;;;;;8.85;7.97;;;;;;;22.89;31.89;101522.63;5001426;27;97278;-71
2021/06/10 07:33:16;;;;;;;8.27;7.47;;;;;;;22.84;31.77;101519.97;5017953;27;98020;-71
2021/06/10 07:35:44;;;;;;;7.53;6.93;;;;;;;22.91;31.99;101520.78;5001905;27;98823;-71
2021/06/10 07:38:11;;;;;;;9.25;7.15;;;;;;;23.01;31.61;101527.81;5016377;27;98168;-71
2021/06/10 07:40:40;;;;;;;14.43;12.93;;;;;;;23.09;31.24;101528.56;5020850;27;97431;-70
2021/06/10 07:43:07;;;;;;;8.82;8.00;;;;;;;23.10;31.51;101524.91;5017782;27;98462;-71
2021/06/10 07:45:37;;;;;;;8.18;7.43;;;;;;;23.12;31.42;101530.31;5017310;27;99128;-71
2021/06/10 07:48:05;;;;;;;8.03;6.80;;;;;;;23.07;31.33;101524.09;5017025;27;97807;-71
2021/06/10 07:50:34;;;;;;;7.60;6.82;;;;;;;23.08;31.19;101524.06;5016534;27;98226;-71
2021/06/10 07:53:01;;;;;;;7.40;6.53;;;;;;;23.14;30.98;101533.91;5016276;27;99409;-71
2021/06/10 07:55:29;;;;;;;7.95;7.20;;;;;;;23.20;30.43;101533.78;5000746;28;99896;-71
2021/06/10 07:58:00;;;;;;;8.63;7.70;;;;;;;23.21;30.56;101531.03;5016725;27;97843;-71
2021/06/10 08:00:27;;;;;;;7.68;6.97;;;;;;;23.27;30.23;101530.94;5019932;27;97192;-71
2021/06/10 08:02:58;;;;;;;9.05;7.25;;;;;;;23.29;30.29;101531.81;5000757;28;99237;-71
2021/06/10 08:05:26;;;;;;;7.90;7.13;;;;;;;23.34;30.42;101531.69;5018672;27;98780;-71
2021/06/10 08:07:54;;;;;;;7.90;6.78;;;;;;;23.40;30.54;101540.69;5018529;27;97884;-71
2021/06/10 08:10:23;;;;;;;8.47;7.60;;;;;;;23.46;30.45;101536.94;5017834;27;97654;-71
2021/06/10 08:12:50;;;;;;;14.70;13.20;;;;;;;23.52;30.75;101539.50;5017627;27;99230;-70
2021/06/10 08:15:18;;;;;;;12.18;10.63;;;;;;;23.60;30.48;101541.16;5018688;27;97515;-71
2021/06/10 08:17:46;;;;;;;10.68;9.57;;;;;;;23.66;30.23;101535.56;5019739;27;98186;-71
2021/06/10 08:20:16;;;;;;;9.85;8.85;;;;;;;23.72;29.71;101534.56;4993782;28;97288;-71
2021/06/10 08:22:44;;;;;;;11.00;7.72;;;;;;;23.75;29.57;101538.09;5016051;27;97827;-71
2021/06/10 08:25:12;;;;;;;9.87;8.97;;;;;;;23.81;29.76;101532.53;5019030;27;98462;-72
2021/06/10 08:27:39;;;;;;;14.35;9.55;;;;;;;23.86;29.54;101540.59;5020753;27;97778;-71
2021/06/10 08:30:08;;;;;;;14.23;12.40;;;;;;;23.92;29.71;101539.59;5022530;27;97683;-71
2021/06/10 08:32:35;;;;;;;11.18;9.98;;;;;;;23.96;29.84;101541.31;5021012;27;98528;-71
2021/06/10 08:35:03;;;;;;;11.68;10.18;;;;;;;24.01;29.74;101531.25;5018812;27;97068;-71
2021/06/10 08:37:32;;;;;;;11.73;10.30;;;;;;;23.91;28.72;101518.78;5020623;27;96769;-71
2021/06/10 08:39:59;;;;;;;10.77;9.70;;;;;;;23.88;28.89;101524.25;5022639;27;100028;-71
2021/06/10 08:42:28;;;;;;;8.95;7.63;;;;;;;23.92;29.52;101526.00;5021323;27;100208;-72
2021/06/10 08:44:56;;;;;;;21.63;16.88;;;;;;;24.04;29.39;101531.16;5018636;27;97769;-72
2021/06/10 08:47:24;;;;;;;21.85;16.58;;;;;;;24.08;29.38;101527.47;5012545;27;98979;-72
2021/06/10 08:49:52;;;;;;;12.88;11.38;;;;;;;24.14;29.44;101528.19;5017146;27;98105;-71
2021/06/10 08:52:19;;;;;;;11.50;9.75;;;;;;;24.20;29.11;101527.16;5019631;27;97777;-71
2021/06/10 08:54:48;;;;;;;14.77;11.07;;;;;;;24.27;29.05;101523.34;5014218;27;99421;-71
2021/06/10 08:57:16;;;;;;;11.75;10.55;;;;;;;24.30;28.17;101520.59;5021588;27;98192;-71
2021/06/10 08:59:43;;;;;;;11.02;9.35;;;;;;;24.35;28.24;101521.34;5019467;27;98570;-72
2021/06/10 09:02:11;;;;;;;13.90;9.63;;;;;;;24.43;28.35;101522.09;5021466;27;99293;-71
2021/06/10 09:04:38;;;;;;;13.70;10.15;;;;;;;24.52;28.42;101516.41;5018302;27;97504;-71
2021/06/10 09:07:07;;;;;;;9.95;8.95;;;;;;;24.60;28.79;101522.56;5021187;27;97272;-71
2021/06/10 09:09:36;;;;;;;10.30;8.43;;;;;;;24.70;28.67;101518.69;5020698;27;98123;-71
2021/06/10 09:12:08;;;;;;;10.05;8.80;;;;;;;24.73;28.46;101522.22;5021610;27;100488;-71
2021/06/10 09:14:54;;;;;;;8.40;7.70;;;;;;;24.80;28.64;101515.69;5020309;27;98167;-72
2021/06/10 09:17:30;;;;;;;11.77;9.73;;;;;;;24.81;28.26;101514.75;5021787;27;98138;-72
2021/06/10 09:19:58;;;;;;;9.63;8.57;;;;;;;24.89;28.06;101517.25;5011374;27;97372;-71
2021/06/10 09:22:40;;;;;;;7.87;7.17;;;;;;;24.97;28.22;101511.66;5025249;27;97309;-71
2021/06/10 09:25:09;;;;;;;9.00;8.10;;;;;;;25.05;27.68;101513.22;5002643;28;100746;-71
2021/06/10 09:27:50;;;;;;;8.45;7.70;;;;;;;25.09;27.17;101514.94;5020316;27;97204;-72
2021/06/10 09:30:28;;;;;;;7.93;7.18;;;;;;;25.10;27.19;101516.72;5021641;27;98316;-71
2021/06/10 09:32:56;;;;;;;28.58;23.63;;;;;;;25.11;26.30;101510.34;5020822;27;98158;-71
2021/06/10 09:35:28;;;;;;;13.87;12.37;;;;;;;25.16;26.90;101516.53;5017236;27;97208;-71
2021/06/10 09:37:59;;;;;;;9.38;8.35;;;;;;;25.16;26.27;101519.25;5019183;27;97053;-72
2021/06/10 09:40:28;;;;;;;8.27;7.43;;;;;;;25.20;26.44;101510.06;5020607;27;98085;-71
2021/06/10 09:42:57;;;;;;;9.02;8.23;;;;;;;25.25;26.95;101519.00;5019693;27;98751;-71
2021/06/10 09:45:27;;;;;;;7.50;6.90;;;;;;;25.30;26.31;101505.28;5019930;27;96901;-71
2021/06/10 09:47:59;;;;;;;8.57;7.78;;;;;;;25.31;26.87;101517.94;5018044;27;97679;-71
2021/06/10 09:50:30;;;;;;;8.52;7.63;;;;;;;25.34;26.49;101510.56;5019508;27;97378;-71
2021/06/10 09:53:00;;;;;;;11.88;10.77;;;;;;;25.33;26.64;101511.53;5020364;27;97870;-72
2021/06/10 09:55:31;;;;;;;13.03;11.67;;;;;;;25.34;26.36;101506.97;5018855;27;97950;-73
2021/06/10 09:58:06;;;;;;;9.15;8.30;;;;;;;25.33;26.55;101507.91;5021234;27;97631;-71
2021/06/10 10:00:33;;;;;;;8.10;7.40;;;;;;;25.35;26.25;101509.66;5021062;27;98222;-71
2021/06/10 10:03:01;;;;;;;7.20;6.60;;;;;;;25.39;26.27;101505.91;5019623;27;100539;-72
2021/06/10 10:05:28;;;;;;;8.87;8.00;;;;;;;25.46;26.40;101506.63;5019593;27;98065;-71
2021/06/10 10:07:55;;;;;;;8.40;7.60;;;;;;;25.51;26.37;101510.13;5021958;27;97291;-71
2021/06/10 10:10:24;;;;;;;8.82;7.93;;;;;;;25.42;26.31;101499.44;5023397;27;96906;-71
2021/06/10 10:12:53;;;;;;;7.50;6.90;;;;;;;25.44;26.40;101509.38;5020996;27;97860;-71
2021/06/10 10:15:22;;;;;;;8.60;7.90;;;;;;;25.50;26.62;101508.34;5018019;27;99351;-72
2021/06/10 10:17:50;;;;;;;9.40;8.50;;;;;;;25.46;26.30;101510.28;5019729;27;98343;-72
2021/06/10 10:20:17;;;;;;;10.32;9.38;;;;;;;25.44;26.31;101508.47;5016530;27;97954;-71
2021/06/10 10:23:09;;;;;;;9.90;9.00;;;;;;;25.43;26.90;101501.25;4995474;27;100579;-72
2021/06/10 10:25:36;;;;;;;7.85;7.25;;;;;;;25.43;26.62;101506.72;5019807;27;99424;-72
2021/06/10 10:28:08;;;;;;;9.60;8.70;;;;;;;25.46;26.29;101506.63;5018687;27;96998;-72
2021/06/10 10:30:37;;;;;;;8.38;7.65;;;;;;;25.45;25.94;101503.00;5018675;27;98277;-71
2021/06/10 10:33:15;;;;;;;9.32;8.43;;;;;;;25.50;26.42;101506.50;5019791;27;97688;-72
2021/06/10 10:35:50;;;;;;;8.43;7.73;;;;;;;25.54;26.19;101496.41;5001015;28;100249;-71
2021/06/10 10:38:21;;;;;;;10.25;9.45;;;;;;;25.64;26.39;101500.66;5018858;27;99071;-72
2021/06/10 10:40:53;;;;;;;13.93;12.43;;;;;;;25.69;26.16;101496.84;5021681;27;97796;-71
2021/06/10 10:43:20;;;;;;;8.80;8.10;;;;;;;25.70;26.17;101493.16;5017940;27;98657;-72
2021/06/10 10:46:06;;;;;;;9.50;8.53;;;;;;;25.62;25.92;101492.50;5021437;27;98290;-71
2021/06/10 10:48:34;;;;;;;9.57;8.77;;;;;;;25.59;25.68;101495.34;5012337;27;97423;-72
2021/06/10 10:51:02;;;;;;;7.97;7.38;;;;;;;25.63;25.86;101485.25;5018003;27;97312;-72
2021/06/10 10:53:43;;;;;;;9.02;8.30;;;;;;;25.69;25.91;101482.31;5016422;27;101380;-72
2021/06/10 10:56:11;;;;;;;9.20;8.50;;;;;;;25.76;25.77;101490.25;5017697;27;97104;-72
2021/06/10 10:58:39;;;;;;;8.95;8.18;;;;;;;25.78;25.81;101487.47;5019148;27;97897;-72
2021/06/10 11:01:08;;;;;;;10.80;9.70;;;;;;;25.84;26.03;101486.38;5019747;27;97604;-72
2021/06/10 11:03:41;;;;;;;8.93;8.13;;;;;;;25.85;25.76;101483.59;5016031;27;97594;-72
2021/06/10 11:06:36;;;;;;;10.73;9.73;;;;;;;25.92;25.15;101484.34;4986022;28;98941;-72
2021/06/10 11:09:11;;;;;;;8.90;8.10;;;;;;;25.97;25.67;101479.66;5021106;27;99024;-72
2021/06/10 11:11:51;;;;;;;;;;;;;;;26.02;25.57;101474.94;5020335;27;96800;-72
2021/06/10 11:14:50;;;;;;;;;;;;;;;26.02;25.33;101477.66;5020389;27;97284;-72
2021/06/10 11:17:20;;;;;;;;;;;;;;;26.03;25.19;101476.75;4987239;27;98036;-71
2021/06/10 11:19:51;;;;;;;;;;;;;;;26.09;25.28;101477.41;5019875;27;97290;-71
2021/06/10 11:22:25;;;;;;;;;;;;;;;26.17;24.92;101469.00;5021956;27;98078;-72
2021/06/10 11:24:53;;;;;;;;;;;;;;;26.21;25.20;101463.41;5019870;27;98835;-72
2021/06/10 11:27:31;;;;;;;;;;;;;;;26.14;24.12;101469.09;5021063;27;97621;-73
2021/06/10 11:30:23;;;;;;;;;;;;;;;26.22;25.06;101469.72;5021657;27;97908;-72
2021/06/10 11:33:01;;;;;;;;;;;;;;;26.22;24.79;101465.16;4990088;27;98070;-72
2021/06/10 11:35:33;;;;;;;;;;;;;;;26.27;24.81;101465.03;5017919;27;99455;-72
2021/06/10 11:38:01;;;;;;;;;;;;;;;26.27;24.83;101465.03;5019668;27;100489;-72
2021/06/10 11:40:28;;;;;;;;;;;;;;;26.27;25.01;101467.75;5021398;27;96872;-72
2021/06/10 11:42:55;;;;;;;;;;;;;;;26.28;25.19;101466.81;5019345;27;97137;-72
2021/06/10 11:45:26;;;;;;;;;;;;;;;26.28;25.29;101461.34;5002086;27;98112;-72